Time;durP1;ratioP1;P1;durP2;ratioP2;P2;SDS_P1;SDS_P2;PMS_P1;PMS_P2;Temp;Humidity;BMP_temperature;BMP_pressure;BME280_temperature;BME280_humidity;BME280_pressure;Samples;Min_cycle;Max_cycle;Signal;HPM_P1;HPM_P2
2023/06/21 00:01:43;;;;;;;3.37;3.07;;;22.60;94.00;;;25.34;63.29;100971.88;5056596;28;20712;-56
2023/06/21 00:04:10;;;;;;;5.73;4.47;;;22.60;94.00;;;25.32;63.08;100995.59;5056226;28;20194;-56
2023/06/21 00:06:37;;;;;;;4.50;3.90;;;22.60;93.60;;;25.21;62.96;101010.13;5055997;28;20209;-56
2023/06/21 00:09:05;;;;;;;4.07;3.63;;;22.60;93.30;;;25.11;62.82;101001.16;5048140;28;20241;-57
2023/06/21 00:11:33;;;;;;;5.30;3.70;;;22.60;93.10;;;25.08;62.70;101001.72;5044394;28;20243;-56
2023/06/21 00:14:01;;;;;;;4.23;3.83;;;22.50;93.30;;;25.06;63.17;100999.28;5037446;28;20552;-56
2023/06/21 00:16:30;;;;;;;5.27;4.63;;;22.50;93.40;;;25.05;62.88;100992.28;5056201;28;20301;-57
2023/06/21 00:18:58;;;;;;;4.73;4.17;;;22.40;93.60;;;25.04;62.88;100966.41;5055757;28;20251;-58
2023/06/21 00:21:25;;;;;;;4.50;4.00;;;22.50;93.60;;;25.06;63.09;100999.28;5055021;28;20301;-54
2023/06/21 00:23:52;;;;;;;4.00;3.70;;;22.40;93.50;;;25.00;63.39;101008.41;5054206;28;20248;-59
2023/06/21 00:26:19;;;;;;;4.67;4.27;;;22.40;93.50;;;24.97;63.24;101008.94;5056004;28;20713;-57
2023/06/21 00:28:46;;;;;;;3.90;3.60;;;22.40;93.30;;;24.95;62.86;101004.88;5055738;28;20190;-55
2023/06/21 00:31:13;;;;;;;4.27;3.97;;;22.40;93.20;;;24.92;63.21;100984.66;5055947;28;20182;-58
2023/06/21 00:33:41;;;;;;;3.80;3.50;;;22.40;93.30;;;24.93;62.54;100997.06;5055436;28;20194;-59
2023/06/21 00:36:08;;;;;;;4.67;3.57;;;22.30;93.20;;;24.93;62.82;100991.69;5055562;28;20210;-56
2023/06/21 00:38:35;;;;;;;4.00;3.70;;;22.30;93.30;;;24.94;62.46;101001.38;5051981;28;20190;-56
2023/06/21 00:41:07;;;;;;;4.20;3.50;;;22.30;93.40;;;24.94;62.82;100998.69;5044946;28;20209;-58
2023/06/21 00:43:34;;;;;;;4.27;3.87;;;22.30;93.40;;;24.97;62.83;101008.94;5055327;28;20225;-57
2023/06/21 00:46:02;;;;;;;3.40;3.10;;;22.30;93.40;;;25.00;63.02;101002.22;5055646;28;20284;-57
2023/06/21 00:48:29;;;;;;;4.17;3.77;;;22.30;93.60;;;25.04;62.77;101004.13;5055602;28;20268;-58
2023/06/21 00:50:58;;;;;;;4.47;4.07;;;22.30;93.70;;;25.09;62.54;101004.13;5055393;28;20273;-55
2023/06/21 00:53:29;;;;;;;4.87;4.47;;;22.30;93.50;;;25.12;62.28;101011.72;5040869;28;20206;-59
2023/06/21 00:55:56;;;;;;;4.83;3.80;;;22.40;93.40;;;25.11;62.72;101018.16;5035266;28;20210;-58
2023/06/21 00:58:23;;;;;;;4.07;3.77;;;22.40;93.20;;;25.11;62.74;101010.06;5035372;28;20277;-57
2023/06/21 01:00:51;;;;;;;4.20;3.83;;;22.40;93.20;;;25.13;62.05;101010.63;5034342;28;20237;-56
2023/06/21 01:03:20;;;;;;;4.60;4.20;;;22.40;93.10;;;25.14;61.89;101020.34;5041054;28;20704;-56
2023/06/21 01:06:03;;;;;;;4.60;4.20;;;22.40;93.00;;;25.10;62.09;101019.25;5054136;28;20288;-58
2023/06/21 01:08:41;;;;;;;4.20;3.87;;;22.40;92.90;;;25.07;62.27;101010.88;5049695;28;20230;-58
2023/06/21 01:11:23;;;;;;;5.10;4.60;;;22.40;92.90;;;25.04;62.31;101009.50;5044093;28;20372;-56
2023/06/21 01:14:09;;;;;;;5.00;4.13;;;22.40;92.90;;;25.05;61.52;101013.03;5054759;28;20245;-57
2023/06/21 01:16:40;;;;;;;5.03;4.23;;;22.40;92.90;;;25.06;62.27;101007.34;5054456;28;20260;-56
2023/06/21 01:19:28;;;;;;;5.07;4.67;;;22.40;92.80;;;25.01;61.36;101012.72;5054546;28;20198;-54
2023/06/21 01:22:02;;;;;;;4.63;4.23;;;22.40;92.90;;;25.03;61.76;101021.34;5054607;28;20201;-56
2023/06/21 01:24:45;;;;;;;4.80;4.30;;;22.40;92.90;;;25.00;61.51;101019.19;5048537;28;20187;-55
2023/06/21 01:27:42;;;;;;;5.97;4.40;;;22.30;92.90;;;24.95;61.47;101019.16;5034645;28;20194;-56
2023/06/21 01:30:12;;;;;;;5.60;5.10;;;22.30;92.90;;;25.00;62.02;101013.81;5034353;28;20194;-59
2023/06/21 01:32:41;;;;;;;5.63;5.13;;;22.30;92.90;;;25.00;62.17;101021.06;5035287;28;20185;-57
2023/06/21 01:35:09;;;;;;;6.33;5.73;;;22.30;92.90;;;24.98;62.38;101026.75;5033995;28;20213;-56
2023/06/21 01:37:42;;;;;;;5.70;5.20;;;22.30;92.90;;;24.95;62.35;101027.25;5034633;28;20695;-58
2023/06/21 01:40:11;;;;;;;5.93;5.37;;;22.30;92.90;;;24.92;61.90;101033.16;5035032;28;20242;-58
2023/06/21 01:42:39;;;;;;;6.27;5.67;;;22.30;92.90;;;24.90;61.64;101029.91;5047483;28;20206;-59
2023/06/21 01:45:08;;;;;;;6.80;6.20;;;22.30;93.00;;;24.88;62.00;101037.44;5054031;28;20304;-55
2023/06/21 01:47:42;;;;;;;7.50;6.60;;;22.20;93.00;;;24.85;61.70;101037.97;5054434;28;20563;-58
2023/06/21 01:50:12;;;;;;;7.30;6.70;;;22.20;93.00;;;24.83;61.99;101048.19;5054135;28;20182;-57
2023/06/21 01:52:41;;;;;;;7.87;7.17;;;22.20;93.00;;;24.79;62.71;101041.72;5054198;28;20277;-57
2023/06/21 01:55:10;;;;;;;8.03;7.33;;;22.20;93.00;;;24.79;62.60;101044.41;5053812;28;20692;-55
2023/06/21 01:57:37;;;;;;;9.30;8.47;;;22.20;93.10;;;24.77;62.63;101043.88;5037274;28;20591;-57
2023/06/21 02:00:16;;;;;;;10.00;9.20;;;22.20;93.20;;;24.77;62.29;101043.88;5034040;28;20681;-57
2023/06/21 02:02:49;;;;;;;10.40;9.50;;;22.20;93.20;;;24.77;62.27;101049.25;5052339;28;20189;-59
2023/06/21 02:05:18;;;;;;;11.60;10.60;;;22.20;93.30;;;24.76;62.52;101051.13;5054012;28;20217;-57
2023/06/21 02:07:47;;;;;;;11.87;10.80;;;22.20;93.30;;;24.76;62.82;101050.28;5053960;28;20198;-58
2023/06/21 02:10:18;;;;;;;11.67;10.57;;;22.10;93.30;;;24.75;62.97;101048.66;5054081;28;20726;-54
2023/06/21 02:12:49;;;;;;;12.53;11.43;;;22.20;93.40;;;24.74;63.16;101047.03;5053035;28;20245;-56
2023/06/21 02:15:17;;;;;;;12.90;11.70;;;22.10;93.40;;;24.77;62.74;101035.78;5053969;28;20691;-58
2023/06/21 02:17:48;;;;;;;12.77;11.67;;;22.10;93.50;;;24.79;63.01;101041.72;5053822;28;20217;-59
2023/06/21 02:20:16;;;;;;;14.30;13.00;;;22.20;93.60;;;24.82;62.99;101043.88;5053635;28;20627;-57
2023/06/21 02:22:44;;;;;;;15.17;13.87;;;22.20;93.60;;;24.84;62.65;101052.53;5053853;28;20197;-54
2023/06/21 02:25:13;;;;;;;15.40;14.00;;;22.20;93.60;;;24.83;63.07;101050.88;5053207;28;20286;-55
2023/06/21 02:27:41;;;;;;;14.73;13.43;;;22.20;93.60;;;24.86;62.80;101061.16;5068740;28;20201;-57
2023/06/21 02:30:10;;;;;;;14.10;12.73;;;22.20;93.70;;;24.87;63.11;101054.66;5053623;28;20221;-54
2023/06/21 02:32:37;;;;;;;17.00;15.40;;;22.30;93.70;;;24.91;62.69;101063.88;5053594;28;20214;-53
2023/06/21 02:35:07;;;;;;;15.93;14.53;;;22.30;93.70;;;24.92;62.77;101070.88;5052382;28;20226;-56
2023/06/21 02:37:34;;;;;;;16.47;14.87;;;22.30;93.70;;;24.93;63.43;101067.13;5052487;28;20240;-57
2023/06/21 02:40:10;;;;;;;15.43;14.10;;;22.30;93.70;;;24.93;63.00;101072.50;5053795;28;20194;-54
2023/06/21 02:42:37;;;;;;;17.13;15.63;;;22.30;93.70;;;24.92;63.24;101060.09;5053238;28;20348;-57
2023/06/21 02:45:06;;;;;;;15.63;14.23;;;22.30;93.70;;;24.96;63.30;101055.78;5044467;28;20220;-56
2023/06/21 02:47:33;;;;;;;17.37;15.63;;;22.30;93.70;;;25.00;63.26;101051.53;5033531;28;20202;-54
2023/06/21 02:50:01;;;;;;;18.37;16.77;;;22.30;93.70;;;25.02;63.21;101048.56;5033978;28;20213;-55
2023/06/21 02:52:29;;;;;;;17.87;16.27;;;22.40;93.80;;;25.05;63.18;101059.63;5039908;28;20224;-57
2023/06/21 02:54:57;;;;;;;17.07;15.67;;;22.40;93.90;;;25.08;63.45;101064.47;5053559;28;20267;-57
2023/06/21 02:57:24;;;;;;;17.73;16.10;;;22.40;93.90;;;25.09;62.99;101060.72;5053364;28;20213;-53
2023/06/21 02:59:51;;;;;;;19.07;17.30;;;22.40;93.90;;;25.11;62.98;101063.16;5034399;28;20341;-55
2023/06/21 03:02:18;;;;;;;18.53;17.00;;;22.40;93.90;;;25.13;63.37;101067.19;5047787;28;20245;-55
2023/06/21 03:04:45;;;;;;;18.13;16.53;;;22.50;93.90;;;25.15;62.78;101070.44;5052908;28;20293;-53
2023/06/21 03:07:12;;;;;;;19.00;17.20;;;22.50;93.80;;;25.16;62.80;101068.56;5052678;28;20198;-56
2023/06/21 03:09:40;;;;;;;19.07;17.27;;;22.50;93.80;;;25.17;62.66;101073.72;5053277;28;20194;-53
2023/06/21 03:12:08;;;;;;;20.57;18.70;;;22.50;93.80;;;25.16;62.67;101074.78;5044682;28;20266;-53
2023/06/21 03:14:37;;;;;;;20.50;18.70;;;22.50;93.70;;;25.17;63.31;101078.28;5033504;28;20297;-57
2023/06/21 03:17:04;;;;;;;19.97;18.17;;;22.50;93.70;;;25.17;63.28;101089.06;5033290;28;20269;-57
2023/06/21 03:19:32;;;;;;;22.37;20.27;;;22.60;93.70;;;25.16;62.82;101099.03;5032936;28;20214;-55
2023/06/21 03:21:59;;;;;;;21.70;19.80;;;22.60;93.70;;;25.17;62.90;101103.34;5033025;28;20206;-56
2023/06/21 03:24:32;;;;;;;23.77;21.67;;;22.50;93.70;;;25.19;63.49;101103.09;5033605;28;20559;-58
2023/06/21 03:27:02;;;;;;;22.73;20.70;;;22.50;93.70;;;25.20;63.43;101105.50;5055949;28;20289;-57
2023/06/21 03:29:29;;;;;;;22.30;20.17;;;22.60;93.80;;;25.23;62.87;101109.56;5056851;28;20186;-58
2023/06/21 03:31:56;;;;;;;23.17;20.87;;;22.60;93.70;;;25.24;63.11;101095.03;5057074;28;20268;-58
2023/06/21 03:34:23;;;;;;;21.33;19.43;;;22.60;93.70;;;25.27;62.74;101100.69;5056419;28;20198;-55
2023/06/21 03:36:53;;;;;;;21.90;19.80;;;22.60;93.70;;;25.31;62.56;101104.50;5056539;28;20648;-56
2023/06/21 03:39:20;;;;;;;22.67;20.30;;;22.60;93.70;;;25.34;63.00;101112.03;5056075;28;20185;-57
2023/06/21 03:41:47;;;;;;;23.03;20.90;;;22.60;93.60;;;25.35;62.13;101113.69;5056444;28;20294;-58
2023/06/21 03:44:15;;;;;;;21.23;19.33;;;22.60;93.60;;;25.34;62.41;101128.22;5055950;28;20204;-53
2023/06/21 03:46:42;;;;;;;22.33;20.00;;;22.60;93.50;;;25.34;62.35;101135.50;5056373;28;20216;-57
2023/06/21 03:49:09;;;;;;;20.67;18.83;;;22.60;93.50;;;25.33;62.79;101137.41;5056312;28;20198;-58
2023/06/21 03:51:36;;;;;;;20.43;18.63;;;22.70;93.50;;;25.35;62.66;101146.03;5055990;28;20205;-53
2023/06/21 03:54:04;;;;;;;21.07;19.20;;;22.70;93.50;;;25.35;62.42;101145.22;5055384;28;20281;-56
2023/06/21 03:56:31;;;;;;;20.83;19.00;;;22.70;93.40;;;25.36;62.71;101154.94;5055919;28;20220;-54
2023/06/21 03:58:58;;;;;;;20.60;18.93;;;22.60;93.40;;;25.36;62.45;101158.44;5056255;28;20200;-55
2023/06/21 04:01:26;;;;;;;21.20;19.40;;;22.60;93.30;;;25.38;62.25;101166.25;5055657;28;20590;-55
2023/06/21 04:03:53;;;;;;;21.73;19.63;;;22.70;93.30;;;25.37;61.94;101168.13;5055812;28;20194;-54
2023/06/21 04:06:21;;;;;;;21.60;19.50;;;22.70;93.20;;;25.36;61.81;101169.22;5045084;28;20217;-54
2023/06/21 04:08:48;;;;;;;19.40;17.67;;;22.60;93.10;;;25.35;62.06;101164.91;5055990;28;20209;-56
2023/06/21 04:11:15;;;;;;;16.87;15.27;;;22.70;93.10;;;25.35;61.58;101170.28;5056097;28;20201;-54
2023/06/21 04:13:42;;;;;;;19.50;17.60;;;22.60;93.00;;;25.35;61.54;101181.06;5055870;28;20212;-55
2023/06/21 04:16:09;;;;;;;19.13;17.40;;;22.70;93.10;;;25.37;61.51;101184.31;5038145;28;20268;-55
2023/06/21 04:18:37;;;;;;;19.67;17.90;;;22.60;93.00;;;25.35;62.08;101183.75;5037873;28;20290;-57
2023/06/21 04:21:05;;;;;;;17.47;15.93;;;22.60;92.90;;;25.37;61.32;101192.41;5054125;28;20293;-55
2023/06/21 04:23:32;;;;;;;19.27;17.57;;;22.70;93.00;;;25.37;61.26;101200.50;5057548;28;20257;-56
2023/06/21 04:25:59;;;;;;;18.63;16.93;;;22.60;92.90;;;25.35;61.98;101191.03;5059718;28;20233;-56
2023/06/21 04:28:26;;;;;;;15.10;13.87;;;22.70;92.90;;;25.37;61.15;101216.66;5060239;28;20186;-56
2023/06/21 04:30:55;;;;;;;16.47;15.07;;;22.60;92.80;;;25.38;61.55;101210.22;5059994;28;20254;-58
2023/06/21 04:33:22;;;;;;;17.83;16.00;;;22.60;92.80;;;25.38;61.61;101214.78;5053376;28;20206;-55
2023/06/21 04:35:50;;;;;;;18.83;17.13;;;22.60;92.60;;;25.35;61.50;101209.91;5038736;28;20579;-57
2023/06/21 04:38:18;;;;;;;16.93;15.37;;;22.60;92.60;;;25.34;61.03;101213.69;5039631;28;20290;-54
2023/06/21 04:40:45;;;;;;;18.30;16.50;;;22.70;92.60;;;25.34;61.50;101219.88;5047406;28;20225;-54
2023/06/21 04:43:12;;;;;;;16.90;15.37;;;22.60;92.60;;;25.34;60.78;101219.88;5059541;28;20216;-55
2023/06/21 04:45:39;;;;;;;17.83;16.17;;;22.60;92.50;;;25.34;61.65;101222.56;5049389;28;20659;-58
2023/06/21 04:48:07;;;;;;;18.10;16.33;;;22.60;92.60;;;25.34;60.87;101222.56;5034650;28;20194;-56
2023/06/21 04:50:34;;;;;;;16.23;14.83;;;22.60;92.60;;;25.34;61.52;101217.19;5035266;28;20281;-59
2023/06/21 04:53:03;;;;;;;15.67;14.17;;;22.60;92.60;;;25.35;60.79;101215.28;5045949;28;20534;-56
2023/06/21 04:55:30;;;;;;;16.97;15.47;;;22.60;92.60;;;25.34;61.49;101222.56;5054766;28;20745;-59
2023/06/21 04:57:58;;;;;;;15.70;14.30;;;22.60;92.50;;;25.37;60.70;101227.44;5054945;28;20308;-59
2023/06/21 05:00:26;;;;;;;17.50;16.03;;;22.60;92.50;;;25.41;60.72;101230.44;5054789;28;20204;-57
2023/06/21 05:02:54;;;;;;;18.07;16.47;;;22.70;92.60;;;25.41;61.01;101225.06;5054419;28;20658;-57
2023/06/21 05:05:21;;;;;;;20.20;18.43;;;22.70;92.60;;;25.39;61.40;101228.00;5054173;28;20256;-57
2023/06/21 05:07:48;;;;;;;21.30;19.10;;;22.70;92.50;;;25.41;61.30;101242.03;5054077;28;20200;-57
2023/06/21 05:10:16;;;;;;;21.73;19.80;;;22.70;92.40;;;25.41;60.71;101247.41;5053300;28;20284;-58
2023/06/21 05:12:43;;;;;;;22.63;20.63;;;22.70;92.40;;;25.41;60.76;101244.72;5054937;28;20609;-58
2023/06/21 05:15:10;;;;;;;24.07;21.90;;;22.70;92.40;;;25.46;61.24;101246.66;5042423;28;20264;-58
2023/06/21 05:17:37;;;;;;;23.67;21.53;;;22.70;92.40;;;25.49;60.68;101248.84;5045685;28;20194;-54
2023/06/21 05:20:08;;;;;;;24.63;22.33;;;22.70;92.40;;;25.52;60.65;101242.94;5054447;28;20190;-59
2023/06/21 05:22:37;;;;;;;25.50;23.23;;;22.80;92.40;;;25.55;61.02;101237.81;5054112;28;20689;-58
2023/06/21 05:25:05;;;;;;;29.43;26.70;;;22.80;92.20;;;25.54;60.18;101238.91;5053994;28;20575;-56
2023/06/21 05:27:33;;;;;;;27.03;24.63;;;22.80;92.00;;;25.57;60.00;101231.38;5043746;28;20203;-59
2023/06/21 05:30:00;;;;;;;26.53;24.07;;;22.80;91.90;;;25.57;60.06;101236.75;5034404;28;20614;-58
2023/06/21 05:32:29;;;;;;;27.03;24.60;;;22.80;91.80;;;25.61;60.06;101235.16;5034298;28;20201;-58
2023/06/21 05:34:56;;;;;;;29.17;26.57;;;22.80;91.80;;;25.65;59.65;101241.66;5033411;28;20301;-57
2023/06/21 05:37:23;;;;;;;28.53;25.93;;;22.90;91.80;;;25.68;59.70;101236.56;5033645;28;20230;-56
2023/06/21 05:39:51;;;;;;;32.03;28.93;;;22.90;91.70;;;25.70;59.42;101242.50;5033852;28;20552;-57
2023/06/21 05:42:18;;;;;;;29.73;27.00;;;22.90;91.50;;;25.71;59.05;101246.81;5053217;28;20260;-56
2023/06/21 05:44:46;;;;;;;28.03;25.40;;;22.90;91.40;;;25.74;59.02;101262.50;5053729;28;20304;-57
2023/06/21 05:47:14;;;;;;;30.80;28.00;;;23.00;91.40;;;25.77;59.70;101266.56;5045475;28;20229;-56
2023/06/21 05:49:41;;;;;;;29.20;26.40;;;23.00;91.40;;;25.77;59.63;101272.75;5040773;28;20563;-55
2023/06/21 05:52:08;;;;;;;31.13;28.20;;;23.00;91.20;;;25.78;59.34;101274.38;5037486;28;20190;-58
2023/06/21 05:54:37;;;;;;;29.27;26.50;;;23.00;91.20;;;25.86;59.18;101275.78;5053228;28;20678;-56
2023/06/21 05:57:05;;;;;;;26.83;24.43;;;23.00;91.30;;;25.98;58.73;101276.38;5053496;28;20551;-58
2023/06/21 05:59:33;;;;;;;29.83;27.13;;;23.10;91.30;;;26.09;59.06;101281.53;5053498;28;20210;-58
2023/06/21 06:02:01;;;;;;;29.47;26.67;;;23.20;91.30;;;26.24;58.79;101283.53;5053182;28;20216;-57
2023/06/21 06:04:28;;;;;;;30.57;27.87;;;23.30;91.30;;;26.33;57.92;101287.34;5053056;28;20578;-59
2023/06/21 06:06:55;;;;;;;32.40;29.50;;;23.40;91.00;;;26.35;57.54;101290.56;5046889;28;20202;-59
2023/06/21 06:09:23;;;;;;;32.03;29.07;;;23.40;90.80;;;26.35;57.18;101290.56;5031997;28;20321;-57
2023/06/21 06:11:50;;;;;;;33.90;30.70;;;23.50;90.40;;;26.37;57.60;101284.91;5047985;28;20239;-54
2023/06/21 06:14:17;;;;;;;33.47;30.37;;;23.50;90.30;;;26.34;57.20;101294.34;5052683;28;20201;-55
2023/06/21 06:16:45;;;;;;;34.87;31.67;;;23.50;90.10;;;26.35;57.57;101278.94;5049846;28;20237;-59
2023/06/21 06:19:14;;;;;;;31.07;28.37;;;23.50;90.00;;;26.33;56.86;101281.94;5040304;28;20277;-57
2023/06/21 06:21:41;;;;;;;35.23;32.13;;;23.50;90.00;;;26.35;56.99;101274.38;5053676;28;20217;-54
2023/06/21 06:24:08;;;;;;;31.23;28.43;;;23.60;90.00;;;26.38;57.31;101284.66;5052808;28;20221;-58
2023/06/21 06:26:35;;;;;;;31.07;28.10;;;23.60;89.90;;;26.43;56.97;101286.56;5051602;28;20249;-57
2023/06/21 06:29:02;;;;;;;32.20;29.37;;;23.60;89.70;;;26.53;56.45;101297.38;5033036;28;20613;-56
2023/06/21 06:31:30;;;;;;;33.27;30.27;;;23.70;89.60;;;26.60;56.39;101304.13;5033040;28;20277;-57
2023/06/21 06:33:57;;;;;;;32.60;29.67;;;23.70;89.20;;;26.67;56.62;101304.69;5033215;28;20186;-57
2023/06/21 06:36:26;;;;;;;32.30;29.47;;;23.70;89.10;;;26.76;55.84;101308.53;5033036;28;20268;-57
2023/06/21 06:38:53;;;;;;;34.30;31.20;;;23.80;89.10;;;26.81;55.81;101322.03;5033420;28;20621;-55
2023/06/21 06:41:20;;;;;;;33.07;30.07;;;23.90;88.50;;;26.81;55.56;101321.25;5045448;28;20190;-59
2023/06/21 06:43:47;;;;;;;31.70;28.77;;;23.90;87.90;;;26.80;55.06;101320.44;5052646;28;20213;-58
2023/06/21 06:46:14;;;;;;;34.57;31.53;;;24.00;87.10;;;26.75;54.77;101330.41;5052450;28;20214;-59
2023/06/21 06:48:41;;;;;;;31.83;29.10;;;24.00;86.50;;;26.65;54.66;101323.06;5052840;28;20198;-59
2023/06/21 06:51:08;;;;;;;28.23;25.63;;;24.00;86.20;;;26.74;54.87;101321.44;5052765;28;20221;-57
2023/06/21 06:53:36;;;;;;;32.23;29.40;;;24.10;86.80;;;26.85;54.82;101327.72;5053519;28;20194;-57
2023/06/21 06:56:04;;;;;;;27.70;25.07;;;24.10;86.30;;;26.93;54.90;101334.50;5051659;28;20347;-57
2023/06/21 06:58:35;;;;;;;29.57;26.77;;;24.10;86.40;;;27.01;54.37;101333.97;5032499;28;20233;-55
2023/06/21 07:01:05;;;;;;;27.27;24.87;;;24.20;86.00;;;27.08;53.62;101331.81;5039204;28;20268;-58
2023/06/21 07:03:33;;;;;;;29.53;26.93;;;24.20;85.00;;;27.10;53.01;101345.88;5056108;28;20693;-57
2023/06/21 07:06:00;;;;;;;26.30;24.00;;;24.30;84.50;;;26.98;53.88;101343.41;5056028;28;20285;-58
2023/06/21 07:08:27;;;;;;;27.37;24.90;;;24.30;84.30;;;27.09;53.57;101355.06;5035471;28;20593;-58
2023/06/21 07:10:56;;;;;;;27.60;25.20;;;24.40;84.60;;;27.19;52.80;101344.28;5043562;28;20702;-57
2023/06/21 07:13:23;;;;;;;25.80;23.57;;;24.40;83.60;;;27.27;52.73;101341.81;5056331;28;20657;-58
2023/06/21 07:15:50;;;;;;;25.53;23.10;;;24.40;83.30;;;27.37;52.59;101351.84;5056002;28;20709;-56
2023/06/21 07:18:17;;;;;;;21.80;19.90;;;24.50;83.60;;;27.52;52.55;101360.81;5055833;28;20194;-59
2023/06/21 07:20:44;;;;;;;23.47;21.43;;;24.60;83.90;;;27.65;51.76;101364.03;5056680;28;20196;-58
2023/06/21 07:23:11;;;;;;;25.57;22.47;;;24.60;83.50;;;27.74;51.84;101370.53;5055803;28;20206;-58
2023/06/21 07:25:38;;;;;;;21.73;19.80;;;24.70;82.90;;;27.80;50.96;101378.34;5055949;28;20354;-58
2023/06/21 07:28:07;;;;;;;21.13;19.13;;;24.80;81.50;;;27.91;50.74;101379.94;5038611;28;20236;-58
2023/06/21 07:30:34;;;;;;;21.43;19.50;;;24.80;81.20;;;28.00;50.64;101389.16;5036059;28;20683;-59
2023/06/21 07:33:01;;;;;;;22.10;20.03;;;24.90;81.40;;;28.07;50.43;101391.59;5035600;28;20687;-54
2023/06/21 07:35:28;;;;;;;24.77;22.37;;;25.00;80.90;;;28.10;49.97;101399.97;5036113;28;20272;-57
2023/06/21 07:37:55;;;;;;;22.07;19.87;;;25.00;80.50;;;28.09;50.07;101403.78;5051502;28;20662;-59
2023/06/21 07:40:23;;;;;;;22.77;20.77;;;25.10;80.20;;;27.98;50.15;101406.75;5055592;28;20194;-57
2023/06/21 07:42:50;;;;;;;20.30;18.50;;;25.10;79.90;;;27.88;50.21;101413.00;5055259;28;20328;-57
2023/06/21 07:45:18;;;;;;;17.60;16.10;;;25.10;79.40;;;27.89;50.26;101402.97;5055882;28;20217;-57
2023/06/21 07:47:45;;;;;;;17.23;15.63;;;25.00;79.10;;;27.92;49.62;101403.25;5055476;28;20222;-56
2023/06/21 07:50:12;;;;;;;16.33;14.80;;;25.00;78.50;;;28.02;49.30;101403.25;5047110;28;20206;-56
2023/06/21 07:52:48;;;;;;;16.67;15.20;;;25.10;78.90;;;28.11;49.26;101407.03;5044974;28;20224;-55
2023/06/21 07:55:16;;;;;;;17.93;16.33;;;25.10;78.60;;;28.17;48.93;101405.91;5055738;28;20221;-57
2023/06/21 07:57:43;;;;;;;17.43;15.63;;;25.20;78.30;;;28.21;48.24;101410.78;5055364;28;20213;-57
2023/06/21 08:00:12;;;;;;;15.90;14.50;;;25.20;76.90;;;28.26;48.11;101410.78;5055316;28;20292;-57
2023/06/21 08:02:44;;;;;;;14.53;13.00;;;25.20;76.50;;;28.33;47.77;101403.16;5054521;28;20619;-57
2023/06/21 08:05:13;;;;;;;14.07;12.67;;;25.30;76.00;;;28.44;47.41;101412.88;5054776;28;20689;-55
2023/06/21 08:07:40;;;;;;;12.77;11.73;;;25.40;76.50;;;28.48;47.13;101412.03;5041525;28;20198;-55
2023/06/21 08:10:09;;;;;;;12.80;11.77;;;25.40;75.30;;;28.54;46.88;101418.25;5035323;28;20213;-55
2023/06/21 08:12:36;;;;;;;11.47;10.57;;;25.50;74.70;;;28.59;46.18;101412.81;5053469;28;20228;-58
2023/06/21 08:15:05;;;;;;;13.23;11.93;;;25.50;73.70;;;28.62;45.61;101417.72;5055078;28;20285;-57
2023/06/21 08:17:32;;;;;;;12.67;11.57;;;25.60;73.10;;;28.60;45.47;101417.16;5053407;28;20205;-57
2023/06/21 08:20:03;;;;;;;12.03;11.03;;;25.60;72.70;;;28.87;45.55;101420.31;5055039;28;20205;-57
2023/06/21 08:22:30;;;;;;;11.40;10.43;;;25.70;73.00;;;29.71;44.41;101416.50;5053374;28;20617;-58
2023/06/21 08:24:57;;;;;;;12.67;11.57;;;25.80;73.80;;;30.28;43.47;101419.22;5034735;28;20226;-55
2023/06/21 08:27:24;;;;;;;11.50;10.50;;;26.20;72.60;;;30.92;42.33;101420.63;5045190;28;20194;-57
2023/06/21 08:29:51;;;;;;;13.23;12.07;;;26.60;72.20;;;31.84;40.51;101414.28;5054843;28;20194;-56
2023/06/21 08:32:19;;;;;;;12.23;11.13;;;27.00;72.10;;;32.63;39.89;101423.97;5054774;28;20245;-58
2023/06/21 08:34:47;;;;;;;11.43;10.53;;;27.50;70.30;;;32.63;38.81;101425.88;5054866;28;20611;-59
2023/06/21 08:37:17;;;;;;;13.27;11.97;;;28.00;67.30;;;32.38;39.24;101427.16;5054746;28;20194;-58
2023/06/21 08:39:44;;;;;;;14.63;13.20;;;28.30;65.90;;;31.95;39.42;101421.16;5054972;28;20198;-58
2023/06/21 08:42:11;;;;;;;14.50;13.30;;;28.30;64.60;;;31.87;39.44;101421.84;5054598;28;20292;-62
2023/06/21 08:44:38;;;;;;;12.93;11.73;;;28.40;65.00;;;32.29;39.86;101430.91;5054738;28;20213;-53
2023/06/21 08:47:07;;;;;;;12.60;11.50;;;28.40;65.70;;;32.85;38.38;101436.88;5046727;28;20292;-56
2023/06/21 08:49:40;;;;;;;15.27;13.77;;;28.60;64.70;;;32.87;37.71;101434.63;5034394;28;20197;-56
2023/06/21 08:52:17;;;;;;;13.20;12.03;;;28.80;63.10;;;32.98;38.04;101427.00;5038388;28;20190;-58
2023/06/21 08:54:56;;;;;;;14.67;13.50;;;28.90;63.20;;;33.13;37.23;101430.25;5054216;28;20217;-56
2023/06/21 08:57:29;;;;;;;13.87;12.77;;;29.10;61.40;;;33.23;36.90;101440.94;5053744;28;20229;-57
2023/06/21 09:00:01;;;;;;;11.87;10.87;;;29.10;60.20;;;33.33;36.62;101440.69;5054133;28;20182;-54
2023/06/21 09:02:44;;;;;;;14.27;12.97;;;29.20;60.00;;;33.92;34.89;101444.94;5052822;28;20247;-56
2023/06/21 09:05:20;;;;;;;11.82;10.82;;;29.40;58.70;;;34.81;34.57;101435.66;5033964;28;20212;-53
2023/06/21 09:07:48;;;;;;;13.10;11.70;;;29.70;59.10;;;35.29;33.05;101442.66;5047116;28;20692;-58
2023/06/21 09:10:20;;;;;;;12.30;11.30;;;30.00;58.30;;;35.27;33.73;101449.59;5054291;28;20292;-56
2023/06/21 09:12:49;;;;;;;12.05;11.10;;;30.30;57.70;;;35.50;31.71;101448.28;5052204;28;20201;-56
2023/06/21 09:15:18;;;;;;;12.50;11.50;;;30.50;55.70;;;35.75;32.47;101450.22;5054198;28;20697;-56
2023/06/21 09:17:46;;;;;;;10.02;9.23;;;30.70;55.30;;;35.89;31.65;101445.34;5052519;28;20226;-57
2023/06/21 09:20:14;;;;;;;10.05;9.10;;;31.00;55.20;;;36.36;30.87;101448.88;5040037;28;20268;-59
2023/06/21 09:22:43;;;;;;;12.55;11.55;;;31.20;54.50;;;36.45;29.91;101446.06;5033331;28;20215;-58
2023/06/21 09:25:10;;;;;;;10.82;9.82;;;31.40;52.80;;;36.43;30.12;101451.91;5035285;28;20305;-59
2023/06/21 09:27:41;;;;;;;10.68;9.70;;;31.50;52.20;;;36.22;30.16;101452.97;5033443;28;20201;-57
2023/06/21 09:30:09;;;;;;;11.20;10.27;;;31.50;51.70;;;35.83;30.88;101451.28;5033784;28;20218;-57
2023/06/21 09:32:57;;;;;;;9.48;8.68;;;31.50;51.30;;;36.16;30.62;101460.56;5033601;28;20183;-57
2023/06/21 09:35:25;;;;;;;10.38;9.57;;;31.50;52.00;;;36.94;29.50;101453.59;5049049;28;20233;-55
2023/06/21 09:37:52;;;;;;;9.43;8.63;;;31.60;51.70;;;37.84;28.69;101462.84;5038684;28;20666;-58
2023/06/21 09:40:19;;;;;;;8.93;8.13;;;31.90;51.30;;;38.07;28.21;101468.72;5036100;28;20666;-57
2023/06/21 09:42:47;;;;;;;9.02;8.38;;;32.20;50.20;;;37.84;27.95;101464.78;5053122;28;20235;-58
2023/06/21 09:45:19;;;;;;;9.60;8.75;;;32.40;48.90;;;38.25;27.67;101464.59;5037211;28;20701;-58
2023/06/21 09:47:46;;;;;;;8.73;8.02;;;32.60;48.00;;;38.89;26.91;101464.75;5045941;28;20679;-58
2023/06/21 09:50:14;;;;;;;9.30;8.60;;;32.80;47.90;;;39.79;26.10;101456.72;5050315;28;20197;-57
2023/06/21 09:52:43;;;;;;;10.60;9.43;;;33.20;46.90;;;40.60;24.16;101468.22;5052900;28;20284;-59
2023/06/21 09:55:13;;;;;;;9.05;8.35;;;33.60;45.20;;;41.20;24.15;101460.09;5047218;28;20301;-58
2023/06/21 09:57:40;;;;;;;10.25;9.32;;;34.10;44.80;;;41.72;23.13;101469.88;5033889;28;20198;-57
2023/06/21 10:00:11;;;;;;;8.75;8.05;;;34.50;43.40;;;42.02;23.17;101459.72;5033387;28;20253;-55
2023/06/21 10:02:39;;;;;;;9.82;8.98;;;34.90;42.70;;;42.39;21.93;101460.72;5033715;28;20535;-57
2023/06/21 10:05:16;;;;;;;9.15;8.45;;;35.10;41.00;;;42.62;22.07;101468.22;5047156;28;20210;-58
2023/06/21 10:07:44;;;;;;;9.27;8.48;;;35.50;39.90;;;43.03;21.52;101472.78;5032207;28;20632;-58
2023/06/21 10:10:12;;;;;;;8.93;8.13;;;35.70;39.50;;;43.31;21.32;101478.72;5033484;28;20244;-57